Time;durP1;ratioP1;P1;durP2;ratioP2;P2;SDS_P1;SDS_P2;PMS_P1;PMS_P2;Temp;Humidity;BMP_temperature;BMP_pressure;BME280_temperature;BME280_humidity;BME280_pressure;Samples;Min_cycle;Max_cycle;Signal;HPM_P1;HPM_P2
2021/08/14 00:01:57;;;;;;;;;4.50;3.25;;;;;21.03;52.04;101534.75;5016430;28;45517;-61
2021/08/14 00:04:22;;;;;;;;;4.50;3.00;;;;;20.99;52.06;101528.94;5014167;28;67354;-61
2021/08/14 00:06:48;;;;;;;;;3.00;3.00;;;;;20.97;52.17;101530.94;5015125;28;74265;-61
2021/08/14 00:09:13;;;;;;;;;3.75;3.75;;;;;20.97;52.53;101535.47;5015377;28;59112;-61
2021/08/14 00:11:38;;;;;;;;;4.25;3.50;;;;;20.93;52.07;101531.50;5016196;28;45285;-60
2021/08/14 00:14:04;;;;;;;;;5.25;3.25;;;;;20.90;52.45;101530.84;5015141;28;69808;-62
2021/08/14 00:16:29;;;;;;;;;5.00;3.00;;;;;20.88;52.74;101530.22;5015918;28;45807;-61
2021/08/14 00:18:55;;;;;;;;;5.50;2.75;;;;;20.86;52.96;101528.75;5014931;28;72202;-62
2021/08/14 00:21:20;;;;;;;;;7.50;4.00;;;;;20.83;52.45;101523.75;5015245;28;65372;-61
2021/08/14 00:23:45;;;;;;;;;7.50;3.75;;;;;20.79;52.20;101523.28;5014976;28;66829;-61
2021/08/14 00:26:11;;;;;;;;;6.50;3.75;;;;;20.75;51.88;101521.94;5014990;28;68058;-61
2021/08/14 00:28:37;;;;;;;;;4.50;3.00;;;;;20.72;51.87;101520.47;5014616;28;71377;-61
2021/08/14 00:31:02;;;;;;;;;4.00;2.25;;;;;20.68;52.26;101518.31;5016050;28;45312;-61
2021/08/14 00:33:27;;;;;;;;;2.25;2.25;;;;;20.67;52.51;101522.00;5015259;28;62559;-61
2021/08/14 00:35:53;;;;;;;;;3.50;2.25;;;;;20.64;53.13;101517.03;5030268;28;71365;-60
2021/08/14 00:38:18;;;;;;;;;5.50;3.25;;;;;20.59;53.37;101518.41;5015794;28;45511;-62
2021/08/14 00:40:44;;;;;;;;;2.25;2.00;;;;;20.54;53.74;101520.78;5015945;28;45915;-61
2021/08/14 00:43:09;;;;;;;;;6.00;4.00;;;;;20.52;53.50;101516.59;5015578;28;46269;-61
2021/08/14 00:45:41;;;;;;;;;6.00;3.50;;;;;20.47;52.90;101511.81;5014194;28;52422;-61
2021/08/14 00:48:07;;;;;;;;;3.25;3.25;;;;;20.46;52.09;101512.81;5015766;28;45382;-62
2021/08/14 00:50:33;;;;;;;;;3.00;3.00;;;;;20.44;51.98;101512.16;5015565;28;45323;-60
2021/08/14 00:52:58;;;;;;;;;5.00;4.50;;;;;20.41;51.80;101520.53;5015613;28;45428;-62
2021/08/14 00:55:24;;;;;;;;;3.25;3.25;;;;;20.39;51.63;101514.53;5014430;28;73284;-61
2021/08/14 00:57:49;;;;;;;;;4.25;3.00;;;;;20.37;52.25;101520.06;5014967;28;54966;-61
2021/08/14 01:00:14;;;;;;;;;3.00;3.00;;;;;20.34;52.17;101520.41;5013417;28;64442;-62
2021/08/14 01:02:40;;;;;;;;;3.00;2.75;;;;;20.32;52.14;101522.44;5015495;28;45536;-61
2021/08/14 01:05:06;;;;;;;;;5.00;2.50;;;;;20.31;51.93;101524.25;5017021;28;67716;-61
2021/08/14 01:07:31;;;;;;;;;5.50;1.50;;;;;20.29;51.91;101523.59;5018781;28;45213;-61
2021/08/14 01:09:56;;;;;;;;;4.50;3.00;;;;;20.30;52.54;101519.91;5017911;28;65128;-60
2021/08/14 01:12:22;;;;;;;;;5.00;3.00;;;;;20.28;52.80;101513.94;5017921;28;64169;-61
2021/08/14 01:14:47;;;;;;;;;6.50;3.00;;;;;20.26;52.15;101512.47;5016391;28;74584;-61
2021/08/14 01:17:14;;;;;;;;;3.50;3.50;;;;;20.23;51.79;101518.97;5018590;28;45163;-61
2021/08/14 01:19:40;;;;;;;;;4.00;4.00;;;;;20.21;52.14;101512.16;5017720;28;45461;-61
2021/08/14 01:22:12;;;;;;;;;3.75;2.00;;;;;20.17;52.40;101514.31;5018473;28;45411;-61
2021/08/14 01:24:38;;;;;;;;;5.50;3.00;;;;;20.16;52.48;101512.66;5018383;28;46361;-61
2021/08/14 01:27:05;;;;;;;;;3.00;2.00;;;;;20.15;52.68;101505.66;5018509;28;45325;-62
2021/08/14 01:29:31;;;;;;;;;4.00;3.00;;;;;20.15;52.15;101511.00;5018400;28;45456;-61
2021/08/14 01:31:56;;;;;;;;;3.00;3.00;;;;;20.13;52.22;101515.72;5017576;28;68028;-61
2021/08/14 01:34:22;;;;;;;;;5.25;4.00;;;;;20.12;51.95;101506.84;5016011;28;75758;-61
2021/08/14 01:36:49;;;;;;;;;6.75;3.50;;;;;20.08;51.82;101505.56;5017402;28;70332;-61
2021/08/14 01:39:14;;;;;;;;;6.00;3.00;;;;;20.09;51.96;101509.06;5018438;28;45304;-61
2021/08/14 01:42:02;;;;;;;;;5.50;2.00;;;;;20.08;52.00;101502.06;5018436;28;45506;-61
2021/08/14 01:44:28;;;;;;;;;4.00;3.50;;;;;20.09;51.57;101507.22;5017961;28;51215;-62
2021/08/14 01:46:53;;;;;;;;;5.00;3.25;;;;;20.08;51.69;101499.41;5018127;28;45865;-60
2021/08/14 01:49:19;;;;;;;;;4.25;3.00;;;;;20.02;51.75;101501.75;5018419;28;45417;-60
2021/08/14 01:51:45;;;;;;;;;3.50;3.50;;;;;20.00;52.07;101500.25;5018220;28;45452;-62
2021/08/14 01:54:10;;;;;;;;;7.50;3.00;;;;;19.96;52.09;101491.78;5033279;28;47213;-60
2021/08/14 01:56:35;;;;;;;;;5.00;3.50;;;;;19.96;52.21;101497.13;5018060;28;45315;-61
2021/08/14 01:59:01;;;;;;;;;3.00;2.00;;;;;19.93;52.23;101500.13;5017643;28;57058;-61
2021/08/14 02:01:26;;;;;;;;;5.25;4.00;;;;;19.92;52.26;101498.47;5017865;28;45411;-61
2021/08/14 02:03:52;;;;;;;;;3.00;3.00;;;;;19.89;52.34;101496.16;5017960;28;46890;-60
2021/08/14 02:06:17;;;;;;;;;3.50;3.00;;;;;19.86;52.33;101491.13;5017517;28;45315;-61
2021/08/14 02:08:43;;;;;;;;;5.00;4.00;;;;;19.83;52.20;101496.81;5017854;28;45327;-61
2021/08/14 02:11:16;;;;;;;;;5.25;3.00;;;;;19.80;52.29;101492.66;5017873;28;45483;-61
2021/08/14 02:13:41;;;;;;;;;3.75;3.00;;;;;19.78;52.44;101485.84;5017681;28;45436;-62
2021/08/14 02:16:07;;;;;;;;;3.75;2.00;;;;;19.78;52.69;101488.50;5016673;28;45455;-61
2021/08/14 02:18:32;;;;;;;;;4.00;2.75;;;;;19.78;53.24;101483.16;5017802;28;45618;-61
2021/08/14 02:20:58;;;;;;;;;4.25;2.00;;;;;19.73;53.37;101481.84;5017609;28;45374;-61
2021/08/14 02:23:23;;;;;;;;;3.50;3.00;;;;;19.72;53.52;101480.19;5017724;28;45431;-61
2021/08/14 02:25:48;;;;;;;;;5.00;3.00;;;;;19.70;53.42;101476.88;5016763;28;70068;-61
2021/08/14 02:28:14;;;;;;;;;2.25;2.25;;;;;19.68;53.31;101478.88;5016722;28;68269;-61
2021/08/14 02:30:39;;;;;;;;;3.50;2.00;;;;;19.65;53.57;101484.53;5016806;28;60708;-61
2021/08/14 02:33:04;;;;;;;;;6.00;3.00;;;;;19.60;53.84;101476.25;5017380;28;45348;-61
2021/08/14 02:35:30;;;;;;;;;4.50;3.25;;;;;19.55;54.06;101476.75;5016475;28;72172;-61
2021/08/14 02:37:55;;;;;;;;;5.00;3.00;;;;;19.52;54.20;101474.44;5016807;28;60160;-60
2021/08/14 02:40:21;;;;;;;;;4.00;3.00;;;;;19.50;54.48;101478.28;5017486;28;45261;-60
2021/08/14 02:42:47;;;;;;;;;3.50;3.25;;;;;19.51;54.57;101474.63;5017333;28;45245;-62
2021/08/14 02:45:12;;;;;;;;;3.00;3.00;;;;;19.47;54.31;101470.66;5016320;28;73232;-61
2021/08/14 02:47:38;;;;;;;;;2.50;2.00;;;;;19.41;54.78;101473.00;5016742;28;58787;-61
2021/08/14 02:50:04;;;;;;;;;3.00;3.00;;;;;19.37;54.62;101471.66;5017196;28;45332;-60
2021/08/14 02:52:29;;;;;;;;;3.25;2.00;;;;;19.33;54.82;101469.53;5016947;28;49095;-61
2021/08/14 02:54:55;;;;;;;;;5.50;4.00;;;;;19.29;55.03;101466.34;5016439;28;65635;-60
2021/08/14 02:57:20;;;;;;;;;4.00;2.50;;;;;19.28;55.05;101465.53;5016280;28;65551;-61
2021/08/14 02:59:45;;;;;;;;;5.50;3.75;;;;;19.27;55.27;101463.03;5016832;28;45430;-60
2021/08/14 03:02:11;;;;;;;;;6.00;4.00;;;;;19.24;55.13;101466.03;5015934;28;76807;-60
2021/08/14 03:04:36;;;;;;;;;4.25;4.00;;;;;19.21;55.33;101461.06;5014742;28;73402;-61
2021/08/14 03:07:02;;;;;;;;;3.25;2.50;;;;;19.16;55.28;101458.06;5016142;28;66838;-61
2021/08/14 03:09:27;;;;;;;;;3.75;2.00;;;;;19.12;55.46;101458.41;5015722;28;45317;-61
2021/08/14 03:11:52;;;;;;;;;4.00;3.00;;;;;19.11;55.38;101456.75;5015649;28;74580;-61
2021/08/14 03:14:18;;;;;;;;;5.00;2.75;;;;;19.08;55.56;101453.59;5016163;28;59691;-61
2021/08/14 03:16:43;;;;;;;;;4.25;3.25;;;;;19.04;55.57;101450.47;5015878;28;68319;-60
2021/08/14 03:19:08;;;;;;;;;5.00;3.00;;;;;18.97;55.82;101447.63;5015903;28;70309;-61
2021/08/14 03:21:34;;;;;;;;;9.00;4.00;;;;;18.95;55.95;101441.59;5015783;28;69824;-62
2021/08/14 03:23:59;;;;;;;;;3.50;3.50;;;;;18.93;55.90;101446.25;5015872;28;68443;-61
2021/08/14 03:26:25;;;;;;;;;4.00;4.00;;;;;18.91;56.10;101442.13;5015688;28;68009;-61
2021/08/14 03:28:51;;;;;;;;;3.50;3.00;;;;;18.88;56.20;101445.94;5016753;28;45453;-61
2021/08/14 03:31:20;;;;;;;;;4.00;2.50;;;;;18.86;56.44;101436.47;5016350;28;48645;-61
2021/08/14 03:33:45;;;;;;;;;4.50;3.50;;;;;18.84;56.57;101445.44;5016817;28;45506;-61
2021/08/14 03:36:11;;;;;;;;;5.75;3.00;;;;;18.83;56.57;101438.47;5016680;28;45248;-61
2021/08/14 03:38:37;;;;;;;;;4.75;3.00;;;;;18.83;56.59;101433.13;5015848;28;64689;-61
2021/08/14 03:41:02;;;;;;;;;4.00;3.00;;;;;18.82;56.44;101439.47;5016369;28;45380;-61
2021/08/14 03:43:28;;;;;;;;;6.50;4.00;;;;;18.79;56.64;101437.13;5016207;28;51793;-60
2021/08/14 03:45:54;;;;;;;;;6.75;4.25;;;;;18.74;56.68;101439.47;5015672;28;66663;-61
2021/08/14 03:48:19;;;;;;;;;4.75;3.75;;;;;18.67;56.81;101438.47;5016569;28;45482;-61
2021/08/14 03:50:44;;;;;;;;;5.50;3.00;;;;;18.63;56.81;101438.00;5016144;28;46054;-60
2021/08/14 03:53:10;;;;;;;;;4.75;3.00;;;;;18.59;56.80;101431.34;5015520;28;65086;-61
2021/08/14 03:55:35;;;;;;;;;5.25;4.75;;;;;18.57;56.98;101428.00;5016398;28;45595;-61
2021/08/14 03:58:01;;;;;;;;;4.25;3.75;;;;;18.56;57.31;101429.00;5015573;28;65507;-61
2021/08/14 04:00:28;;;;;;;;;3.50;3.00;;;;;18.52;57.23;101425.88;5015001;28;72773;-61
2021/08/14 04:02:53;;;;;;;;;4.00;3.25;;;;;18.48;57.46;101424.53;5015693;28;46070;-60
2021/08/14 04:05:18;;;;;;;;;4.25;4.25;;;;;18.46;57.57;101423.88;5015866;28;55850;-60
2021/08/14 04:07:44;;;;;;;;;4.00;3.50;;;;;18.44;57.40;101423.19;5015342;28;64013;-62
2021/08/14 04:10:09;;;;;;;;;8.25;4.00;;;;;18.42;57.71;101427.84;5014980;28;74185;-61
2021/08/14 04:12:36;;;;;;;;;4.00;3.00;;;;;18.39;57.58;101425.53;5016022;28;45874;-61
2021/08/14 04:15:05;;;;;;;;;4.00;2.75;;;;;18.35;57.66;101421.53;5016222;28;45867;-61
2021/08/14 04:17:33;;;;;;;;;5.25;4.75;;;;;18.30;57.73;101416.69;5015968;28;45586;-61
2021/08/14 04:19:59;;;;;;;;;3.00;3.00;;;;;18.28;57.85;101420.53;5015043;28;71288;-60
2021/08/14 04:22:24;;;;;;;;;5.00;3.00;;;;;18.26;58.00;101417.19;5015859;28;45325;-60
2021/08/14 04:24:50;;;;;;;;;4.00;4.00;;;;;18.23;57.96;101410.38;5016060;28;45565;-61
2021/08/14 04:27:15;;;;;;;;;4.00;3.25;;;;;18.21;58.03;101415.03;5015051;28;70453;-61
2021/08/14 04:29:40;;;;;;;;;6.00;4.75;;;;;18.18;58.20;101413.53;5014668;28;75404;-61
2021/08/14 04:32:06;;;;;;;;;6.25;4.00;;;;;18.13;58.28;101410.53;5014919;28;69482;-60
2021/08/14 04:34:32;;;;;;;;;4.75;3.75;;;;;18.11;58.62;101411.69;5015819;28;45305;-61
2021/08/14 04:36:57;;;;;;;;;6.50;4.00;;;;;18.08;58.48;101413.69;5014997;28;63953;-61
2021/08/14 04:39:22;;;;;;;;;5.50;4.75;;;;;18.08;58.67;101412.84;5016279;28;72207;-61
2021/08/14 04:41:48;;;;;;;;;5.50;3.00;;;;;18.07;58.64;101406.72;5018272;28;70791;-61
2021/08/14 04:44:13;;;;;;;;;4.00;4.00;;;;;18.06;58.67;101415.69;5018898;28;50186;-60
2021/08/14 04:46:38;;;;;;;;;8.00;4.75;;;;;18.05;58.72;101407.84;5019267;28;45594;-61
2021/08/14 04:49:04;;;;;;;;;4.75;3.00;;;;;18.06;58.83;101409.50;5018897;28;46003;-62
2021/08/14 04:51:29;;;;;;;;;6.00;5.00;;;;;18.06;59.01;101404.19;5018257;28;65916;-61
2021/08/14 04:53:55;;;;;;;;;5.00;3.25;;;;;18.05;58.90;101403.38;5018854;28;45420;-60
2021/08/14 04:56:20;;;;;;;;;4.25;4.25;;;;;18.02;58.96;101398.38;5019143;28;45375;-60
2021/08/14 04:58:45;;;;;;;;;4.00;4.00;;;;;18.06;58.73;101398.88;5018758;28;50598;-61
2021/08/14 05:01:11;;;;;;;;;4.00;4.00;;;;;18.06;58.80;101396.22;5017985;28;63811;-60
2021/08/14 05:03:36;;;;;;;;;4.75;3.50;;;;;18.07;59.09;101403.19;5019149;28;45261;-61
2021/08/14 05:06:02;;;;;;;;;6.00;5.00;;;;;18.08;59.11;101395.06;5017833;28;70237;-61
2021/08/14 05:08:28;;;;;;;;;5.00;3.75;;;;;18.11;58.90;101395.75;5018841;28;45234;-61
2021/08/14 05:10:53;;;;;;;;;8.50;4.50;;;;;18.10;59.09;101400.22;5018606;28;45409;-61
2021/08/14 05:13:19;;;;;;;;;9.00;4.25;;;;;18.12;59.00;101400.88;5017938;28;67761;-61
2021/08/14 05:15:44;;;;;;;;;6.25;5.50;;;;;18.11;59.17;101401.06;5018753;28;45397;-61
2021/08/14 05:18:09;;;;;;;;;4.25;3.00;;;;;18.13;59.23;101404.38;5018587;28;46327;-61
2021/08/14 05:20:35;;;;;;;;;5.75;5.00;;;;;18.16;59.17;101404.06;5017872;28;65083;-61
2021/08/14 05:23:00;;;;;;;;;5.25;4.00;;;;;18.18;59.28;101400.22;5018129;28;58051;-61
2021/08/14 05:25:26;;;;;;;;;5.00;5.00;;;;;18.22;59.22;101398.91;5017473;28;69419;-61
2021/08/14 05:27:51;;;;;;;;;4.50;4.00;;;;;18.27;58.85;101405.56;5018508;28;45312;-60
2021/08/14 05:30:17;;;;;;;;;6.00;4.00;;;;;18.31;58.86;101404.22;5018317;28;45245;-60
2021/08/14 05:32:42;;;;;;;;;6.00;4.00;;;;;18.33;59.07;101400.38;5018483;28;45347;-61
2021/08/14 05:35:08;;;;;;;;;4.75;2.00;;;;;18.37;58.68;101404.38;5018399;28;45507;-60
2021/08/14 05:37:34;;;;;;;;;6.00;4.25;;;;;18.42;58.54;101397.72;5018238;28;46034;-61
2021/08/14 05:39:59;;;;;;;;;4.75;3.25;;;;;18.45;59.07;101398.25;5017558;28;66573;-61
2021/08/14 05:42:25;;;;;;;;;7.75;4.00;;;;;18.50;59.08;101401.25;5018491;28;45340;-60
2021/08/14 05:44:50;;;;;;;;;4.75;2.75;;;;;18.52;58.95;101399.25;5017339;28;68935;-61
2021/08/14 05:47:15;;;;;;;;;6.00;3.00;;;;;18.57;59.26;101409.38;5018061;28;45887;-61
2021/08/14 05:49:41;;;;;;;;;5.00;3.75;;;;;18.63;59.06;101405.19;5016653;28;72546;-61
2021/08/14 05:52:06;;;;;;;;;2.25;2.25;;;;;18.67;58.96;101415.38;5016260;28;69395;-62
2021/08/14 05:54:33;;;;;;;;;4.00;4.00;;;;;18.74;58.74;101412.84;5018003;28;45470;-62
2021/08/14 05:56:59;;;;;;;;;6.75;4.00;;;;;18.82;58.37;101415.50;5017930;28;45325;-61
2021/08/14 05:59:24;;;;;;;;;5.50;3.75;;;;;18.87;58.21;101416.81;5016776;28;71782;-61
2021/08/14 06:01:49;;;;;;;;;4.75;2.00;;;;;18.94;57.85;101423.13;5017372;28;61941;-61
2021/08/14 06:04:15;;;;;;;;;3.50;3.00;;;;;19.01;58.43;101423.31;5017245;28;66329;-63
2021/08/14 06:06:44;;;;;;;;;6.00;4.75;;;;;19.08;57.49;101422.44;5017006;28;74752;-61
2021/08/14 06:09:09;;;;;;;;;6.75;3.50;;;;;19.17;57.45;101428.59;5017687;28;45336;-60
2021/08/14 06:11:35;;;;;;;;;4.50;3.25;;;;;19.28;57.24;101435.38;5017474;28;45325;-60
2021/08/14 06:14:00;;;;;;;;;6.25;4.75;;;;;19.36;56.84;101427.38;5016953;28;69460;-61
2021/08/14 06:16:25;;;;;;;;;3.75;3.50;;;;;19.47;56.52;101433.34;5015383;28;75699;-61
2021/08/14 06:18:51;;;;;;;;;6.75;5.00;;;;;19.55;56.05;101433.31;5017718;28;45241;-62
2021/08/14 06:21:16;;;;;;;;;6.00;3.25;;;;;19.61;55.34;101429.91;5017854;28;45230;-62
2021/08/14 06:23:42;;;;;;;;;3.75;3.00;;;;;19.66;54.93;101430.22;5016698;28;69173;-61
2021/08/14 06:26:07;;;;;;;;;7.50;3.00;;;;;19.75;55.27;101435.53;5017363;28;46028;-61
2021/08/14 06:28:32;;;;;;;;;4.00;3.75;;;;;19.84;55.43;101437.13;5016491;28;73294;-60
2021/08/14 06:30:58;;;;;;;;;6.00;5.00;;;;;19.96;54.89;101435.78;5015914;28;54206;-60
2021/08/14 06:33:23;;;;;;;;;4.00;4.00;;;;;20.07;54.71;101431.03;5017684;28;45271;-61
2021/08/14 06:35:48;;;;;;;;;5.75;4.00;;;;;20.16;54.28;101432.63;5016616;28;71703;-62
2021/08/14 06:38:14;;;;;;;;;7.00;4.50;;;;;20.26;53.91;101435.88;5016295;28;72156;-61
2021/08/14 06:40:39;;;;;;;;;4.75;4.75;;;;;20.40;53.62;101444.13;5016536;28;65188;-61
2021/08/14 06:43:05;;;;;;;;;5.25;4.00;;;;;20.50;53.46;101441.19;5017485;28;45546;-61
2021/08/14 06:45:30;;;;;;;;;8.00;5.00;;;;;20.61;53.62;101446.13;5017247;28;46101;-61
2021/08/14 06:47:56;;;;;;;;;6.00;4.00;;;;;20.73;53.45;101441.16;5017419;28;45526;-61
2021/08/14 06:50:21;;;;;;;;;4.00;4.00;;;;;20.85;52.55;101439.75;5016542;28;68836;-61
2021/08/14 06:52:46;;;;;;;;;5.50;4.25;;;;;20.97;52.73;101439.31;5016540;28;66591;-61
2021/08/14 06:55:12;;;;;;;;;7.25;4.00;;;;;21.05;51.80;101440.03;5017130;28;45895;-61
2021/08/14 06:57:37;;;;;;;;;3.50;3.00;;;;;21.12;51.34;101440.16;5016879;28;52784;-61
2021/08/14 07:00:04;;;;;;;;;3.75;3.50;;;;;21.16;51.30;101438.78;5016962;28;45486;-62
2021/08/14 07:02:29;;;;;;;;;4.25;3.50;;;;;21.26;51.71;101441.16;5016710;28;45329;-61
2021/08/14 07:04:54;;;;;;;;;3.00;2.00;;;;;21.40;51.19;101444.81;5015021;28;69493;-60
2021/08/14 07:07:20;;;;;;;;;6.00;4.50;;;;;21.50;51.06;101434.69;5016197;28;69298;-62
2021/08/14 07:09:45;;;;;;;;;3.75;3.50;;;;;21.59;50.80;101442.59;5017061;28;45399;-61
2021/08/14 07:12:11;;;;;;;;;3.00;3.00;;;;;21.69;49.89;101439.66;5016932;28;45208;-61
2021/08/14 07:14:36;;;;;;;;;5.00;3.25;;;;;21.82;49.67;101442.47;5016281;28;45474;-62
2021/08/14 07:17:02;;;;;;;;;3.50;3.50;;;;;21.96;49.40;101438.09;5016971;28;45284;-62
2021/08/14 07:19:28;;;;;;;;;4.75;3.50;;;;;22.12;48.56;101438.88;5016796;28;45411;-62
2021/08/14 07:21:53;;;;;;;;;3.50;3.00;;;;;22.26;47.98;101427.25;5017017;28;45184;-61
2021/08/14 07:24:19;;;;;;;;;4.00;4.00;;;;;22.39;47.69;101435.41;5015675;28;74577;-61
2021/08/14 07:26:44;;;;;;;;;3.25;3.25;;;;;22.52;47.55;101431.22;5016670;28;45224;-61
2021/08/14 07:29:10;;;;;;;;;4.00;3.00;;;;;22.67;46.85;101437.31;5016427;28;49016;-61
2021/08/14 07:31:35;;;;;;;;;7.00;3.00;;;;;22.82;46.74;101436.38;5016190;28;64271;-62
2021/08/14 07:34:00;;;;;;;;;5.00;4.50;;;;;22.96;46.33;101438.13;5015873;28;67764;-62
2021/08/14 07:36:26;;;;;;;;;9.25;7.00;;;;;23.08;45.97;101429.53;5015817;28;68989;-63
2021/08/14 07:38:51;;;;;;;;;4.00;3.75;;;;;23.20;45.61;101427.97;5015534;28;45376;-62
2021/08/14 07:41:16;;;;;;;;;5.00;4.25;;;;;23.35;45.25;101427.00;5015799;28;69442;-62
2021/08/14 07:43:42;;;;;;;;;3.75;3.00;;;;;23.51;45.45;101431.22;5016101;28;56379;-61
2021/08/14 07:46:09;;;;;;;;;4.25;2.75;;;;;23.62;44.65;101429.81;5015556;28;73051;-62
2021/08/14 07:48:34;;;;;;;;;5.00;3.75;;;;;23.67;44.49;101428.16;5016762;28;45530;-61
2021/08/14 07:51:01;;;;;;;;;3.75;3.75;;;;;23.71;43.64;101433.97;5015914;28;62892;-62
2021/08/14 07:53:26;;;;;;;;;5.75;5.25;;;;;23.72;44.27;101424.91;5016487;28;45375;-62
2021/08/14 07:55:52;;;;;;;;;6.25;4.25;;;;;23.86;43.52;101426.56;5016381;28;45321;-62
2021/08/14 07:58:17;;;;;;;;;3.75;3.00;;;;;23.99;43.68;101424.97;5016594;28;45328;-61
2021/08/14 08:00:43;;;;;;;;;4.50;4.00;;;;;24.09;42.61;101422.72;5016245;28;45510;-61
2021/08/14 08:03:09;;;;;;;;;4.00;3.00;;;;;24.22;42.58;101424.59;5016478;28;45960;-62
2021/08/14 08:05:34;;;;;;;;;3.50;2.75;;;;;24.34;42.22;101416.75;5016718;28;45215;-63
2021/08/14 08:08:04;;;;;;;;;4.50;3.25;;;;;24.47;42.03;101417.75;5016512;28;45288;-62
2021/08/14 08:10:29;;;;;;;;;2.25;2.25;;;;;24.59;41.98;101418.78;5016181;28;45309;-62
2021/08/14 08:12:54;;;;;;;;;2.50;2.50;;;;;24.69;40.53;101413.81;5016184;28;46900;-59
2021/08/14 08:15:20;;;;;;;;;3.25;3.00;;;;;24.76;40.24;101413.03;5019175;28;45278;-62
2021/08/14 08:17:45;;;;;;;;;4.50;2.25;;;;;24.82;39.68;101418.38;5020012;28;45311;-61
2021/08/14 08:20:12;;;;;;;;;3.00;1.75;;;;;24.85;39.51;101409.09;5019908;28;45420;-62
2021/08/14 08:22:37;;;;;;;;;5.50;2.00;;;;;24.90;39.63;101403.91;5019427;28;46241;-62
2021/08/14 08:25:03;;;;;;;;;2.00;2.00;;;;;25.03;39.42;101403.84;5018427;28;45408;-61
2021/08/14 08:27:29;;;;;;;;;2.50;2.00;;;;;25.23;39.64;101408.34;5019790;28;45329;-61
2021/08/14 08:29:54;;;;;;;;;3.00;2.75;;;;;25.39;39.29;101411.59;5019723;28;45586;-62
2021/08/14 08:32:19;;;;;;;;;3.00;3.00;;;;;25.58;39.09;101402.63;5018568;28;71908;-62
2021/08/14 08:34:45;;;;;;;;;3.00;3.00;;;;;25.78;38.54;101404.38;5018851;28;67612;-62
2021/08/14 08:37:10;;;;;;;;;4.75;4.25;;;;;25.92;37.91;101400.56;5018749;28;68278;-62
2021/08/14 08:39:37;;;;;;;;;3.50;2.00;;;;;26.09;37.19;101402.69;5018741;28;66511;-62
2021/08/14 08:42:03;;;;;;;;;5.00;2.00;;;;;26.24;36.78;101406.97;5019410;28;45290;-61
2021/08/14 08:44:29;;;;;;;;;2.75;2.25;;;;;26.37;36.82;101399.59;5019476;28;45866;-62
2021/08/14 08:46:54;;;;;;;;;3.00;3.00;;;;;26.48;36.05;101403.47;5018554;28;65402;-61
2021/08/14 08:49:20;;;;;;;;;3.75;2.25;;;;;26.61;36.35;101401.66;5018921;28;50810;-63
2021/08/14 08:51:45;;;;;;;;;3.75;2.75;;;;;26.77;37.00;101398.38;5019164;28;46107;-62
2021/08/14 08:54:12;;;;;;;;;4.00;3.00;;;;;26.96;36.83;101398.44;5018974;28;48123;-63
2021/08/14 08:56:37;;;;;;;;;3.75;3.00;;;;;27.10;35.74;101397.22;5019188;28;45214;-62
2021/08/14 08:59:03;;;;;;;;;3.75;3.75;;;;;27.29;35.73;101399.09;5019307;28;45217;-61
2021/08/14 09:01:28;;;;;;;;;3.50;2.25;;;;;27.43;35.85;101397.84;5017931;28;72292;-62
2021/08/14 09:03:54;;;;;;;;;6.25;3.25;;;;;27.60;35.36;101395.34;5016916;28;71328;-62
2021/08/14 09:06:39;;;;;;;;;4.25;2.50;;;;;27.79;34.95;101384.50;5019060;28;45320;-62
2021/08/14 09:09:05;;;;;;;;;6.00;3.50;;;;;27.94;34.58;101381.34;5019199;28;45222;-62
2021/08/14 09:11:30;;;;;;;;;5.75;3.25;;;;;28.08;34.51;101387.38;5018722;28;46037;-62
2021/08/14 09:14:05;;;;;;;;;4.50;3.75;;;;;28.21;33.99;101379.06;5000035;28;69959;-62
2021/08/14 09:16:30;;;;;;;;;4.00;4.00;;;;;28.33;32.93;101380.94;5019005;28;45268;-62
2021/08/14 09:18:57;;;;;;;;;5.75;5.00;;;;;28.43;33.13;101370.38;5017978;28;69494;-60
2021/08/14 09:21:34;;;;;;;;;4.25;3.75;;;;;28.54;32.87;101385.78;5018131;28;51454;-60
2021/08/14 09:24:04;;;;;;;;;4.75;3.25;;;;;28.68;32.35;101385.50;5018733;28;45894;-60
2021/08/14 09:26:32;;;;;;;;;4.50;2.75;;;;;28.82;32.02;101386.94;5018531;28;45336;-60
2021/08/14 09:29:04;;;;;;;;;8.00;4.25;;;;;28.96;31.35;101379.38;5018490;28;45523;-62
2021/08/14 09:31:48;;;;;;;;;3.50;2.75;;;;;29.11;30.42;101389.69;5018341;28;46023;-63
2021/08/14 09:34:17;;;;;;;;;5.00;3.50;;;;;29.22;30.98;101387.16;5018064;28;45372;-60
2021/08/14 09:36:43;;;;;;;;;4.25;4.25;;;;;29.32;30.25;101382.78;5018698;28;45509;-62
2021/08/14 09:39:08;;;;;;;;;5.00;3.50;;;;;29.44;31.03;101384.63;5018512;28;45478;-62
2021/08/14 09:41:33;;;;;;;;;4.50;4.00;;;;;29.57;30.60;101387.03;5017946;28;61420;-59
2021/08/14 09:43:59;;;;;;;;;6.25;5.00;;;;;29.70;30.32;101385.91;5017653;28;69532;-62
2021/08/14 09:46:40;;;;;;;;;4.25;3.75;;;;;29.83;30.44;101383.97;5017304;28;69285;-60
2021/08/14 09:49:05;;;;;;;;;4.75;3.50;;;;;29.91;30.11;101378.13;5018354;28;45342;-63
2021/08/14 09:51:31;;;;;;;;;5.00;4.50;;;;;29.98;30.02;101380.72;5015922;28;74793;-61
2021/08/14 09:53:58;;;;;;;;;4.00;4.00;;;;;30.05;30.04;101374.06;5018233;28;45343;-62
2021/08/14 09:56:24;;;;;;;;;4.75;2.75;;;;;30.15;30.28;101369.88;5018198;28;45376;-62
2021/08/14 09:58:49;;;;;;;;;5.50;5.00;;;;;30.26;30.03;101368.94;5018164;28;45419;-62
2021/08/14 10:01:15;;;;;;;;;3.25;2.75;;;;;30.37;29.49;101371.81;5015578;28;75460;-62
2021/08/14 10:03:40;;;;;;;;;5.75;3.50;;;;;30.48;29.47;101368.97;4999305;28;72080;-61
2021/08/14 10:06:09;;;;;;;;;3.75;3.00;;;;;30.60;29.14;101370.81;5017074;28;45602;-62
2021/08/14 10:08:34;;;;;;;;;4.75;4.00;;;;;30.69;28.55;101363.88;5000334;28;45300;-63
2021/08/14 10:10:59;;;;;;;;;6.50;3.00;;;;;30.80;28.82;101364.81;5015428;28;76079;-62
2021/08/14 10:13:25;;;;;;;;;6.00;4.00;;;;;30.87;28.21;101362.72;5016609;28;45308;-62
2021/08/14 10:15:50;;;;;;;;;4.75;4.25;;;;;30.92;28.43;101360.09;5017751;28;45257;-63
2021/08/14 10:18:17;;;;;;;;;3.00;3.00;;;;;30.96;28.34;101363.13;5016408;28;45427;-61
2021/08/14 10:20:43;;;;;;;;;5.50;3.00;;;;;31.04;28.33;101353.69;5017356;28;46517;-61
2021/08/14 10:23:09;;;;;;;;;3.00;3.00;;;;;31.14;28.48;101359.25;5017167;28;45477;-62
2021/08/14 10:25:41;;;;;;;;;4.25;4.25;;;;;31.26;27.95;101355.59;5016452;28;45388;-61
2021/08/14 10:28:08;;;;;;;;;3.75;3.75;;;;;31.36;27.34;101356.50;5000095;28;45376;-61
2021/08/14 10:30:46;;;;;;;;;4.75;3.25;;;;;31.48;27.64;101348.19;5017535;28;45351;-61
2021/08/14 10:33:26;;;;;;;;;4.00;3.25;;;;;31.57;27.54;101345.81;5017276;28;45343;-61
2021/08/14 10:35:52;;;;;;;;;7.00;4.25;;;;;31.61;27.05;101346.94;5017327;28;45413;-60
2021/08/14 10:38:47;;;;;;;;;3.25;3.25;;;;;31.66;27.47;101333.41;4998618;28;50621;-61
2021/08/14 10:41:12;;;;;;;;;2.50;2.50;;;;;31.72;27.94;101333.47;5016163;28;45461;-62
2021/08/14 10:43:57;;;;;;;;;3.75;3.00;;;;;31.78;26.61;101329.72;5016505;28;68690;-61
2021/08/14 10:46:31;;;;;;;;;2.50;2.50;;;;;31.79;27.06;101332.22;5017063;28;45435;-61
2021/08/14 10:48:56;;;;;;;;;5.00;3.50;;;;;31.80;27.06;101325.66;5017287;28;45582;-62
2021/08/14 10:51:22;;;;;;;;;6.25;4.00;;;;;31.82;26.33;101326.22;5016938;28;45715;-62
2021/08/14 10:53:50;;;;;;;;;5.25;4.25;;;;;31.88;26.51;101324.38;5016492;28;61885;-62
2021/08/14 10:56:50;;;;;;;;;4.75;3.50;;;;;32.00;26.37;101323.38;5017081;28;45269;-62
2021/08/14 10:59:35;;;;;;;;;3.25;2.00;;;;;32.11;26.50;101317.72;5016043;28;45482;-61
2021/08/14 11:02:06;;;;;;;;;7.75;4.75;;;;;32.22;26.90;101321.31;5016845;28;45387;-61
2021/08/14 11:04:37;;;;;;;;;6.75;4.25;;;;;32.35;26.73;101313.81;5016995;28;45744;-62
2021/08/14 11:07:18;;;;;;;;;4.75;2.25;;;;;32.48;26.32;101315.22;5016910;28;45316;-62
2021/08/14 11:09:47;;;;;;;;;5.50;3.50;;;;;32.49;26.12;101311.41;5016837;28;45262;-61
2021/08/14 11:12:12;;;;;;;;;5.75;5.25;;;;;32.50;26.16;101310.34;5016919;28;45320;-62
2021/08/14 11:14:40;;;;;;;;;5.00;4.50;;;;;32.54;26.53;101308.72;4998976;28;45539;-61
2021/08/14 11:17:05;;;;;;;;;4.75;4.25;;;;;32.61;26.53;101309.28;5016117;28;45338;-62
2021/08/14 11:19:40;;;;;;;;;5.25;4.25;;;;;32.65;26.50;101312.28;5032023;28;45648;-62
2021/08/14 11:22:32;;;;;;;;;5.50;5.50;;;;;32.66;26.47;101308.47;5016323;28;54556;-62